sensor_id;sensor_type;location;lat;lon;timestamp;pressure;altitude;pressure_sealevel;temperature;humidity
25855;BME280;13680;49.936;11.344;2023-03-15T00:01:55;96029.66;;;4.01;82.65
25855;BME280;13680;49.936;11.344;2023-03-15T00:04:21;96029.94;;;3.94;82.91
25855;BME280;13680;49.936;11.344;2023-03-15T00:06:46;96028.88;;;3.95;82.78
25855;BME280;13680;49.936;11.344;2023-03-15T00:09:11;96031.03;;;3.93;82.65
25855;BME280;13680;49.936;11.344;2023-03-15T00:11:37;96052.34;;;3.88;82.77
25855;BME280;13680;49.936;11.344;2023-03-15T00:14:02;96062.75;;;3.79;83.41
25855;BME280;13680;49.936;11.344;2023-03-15T00:16:28;96066.72;;;3.87;83.19
25855;BME280;13680;49.936;11.344;2023-03-15T00:18:53;96071.75;;;3.88;83.30
25855;BME280;13680;49.936;11.344;2023-03-15T00:21:19;96074.66;;;3.92;82.96
25855;BME280;13680;49.936;11.344;2023-03-15T00:23:45;96069.31;;;3.97;83.41
25855;BME280;13680;49.936;11.344;2023-03-15T00:26:11;96075.97;;;3.95;83.14
25855;BME280;13680;49.936;11.344;2023-03-15T00:28:36;96075.13;;;3.99;83.18
25855;BME280;13680;49.936;11.344;2023-03-15T00:31:08;96080.47;;;3.99;83.12
25855;BME280;13680;49.936;11.344;2023-03-15T00:33:36;96087.63;;;4.04;83.08
25855;BME280;13680;49.936;11.344;2023-03-15T00:36:05;96083.38;;;4.03;82.86
25855;BME280;13680;49.936;11.344;2023-03-15T00:38:34;96086.28;;;4.06;82.92
25855;BME280;13680;49.936;11.344;2023-03-15T00:41:08;96080.25;;;3.96;82.74
25855;BME280;13680;49.936;11.344;2023-03-15T00:43:34;96089.28;;;3.95;82.72
25855;BME280;13680;49.936;11.344;2023-03-15T00:45:59;96106.03;;;3.90;82.78
25855;BME280;13680;49.936;11.344;2023-03-15T00:48:25;96103.38;;;3.90;82.72
25855;BME280;13680;49.936;11.344;2023-03-15T00:50:51;96100.72;;;3.90;82.57
25855;BME280;13680;49.936;11.344;2023-03-15T00:53:16;96113.78;;;3.81;82.51
25855;BME280;13680;49.936;11.344;2023-03-15T00:55:41;96104.44;;;3.89;82.39
25855;BME280;13680;49.936;11.344;2023-03-15T00:58:07;96111.97;;;3.76;82.66
25855;BME280;13680;49.936;11.344;2023-03-15T01:00:33;96115.69;;;3.75;82.86
25855;BME280;13680;49.936;11.344;2023-03-15T01:02:58;96128.16;;;3.75;82.89
25855;BME280;13680;49.936;11.344;2023-03-15T01:05:24;96131.91;;;3.74;83.03
25855;BME280;13680;49.936;11.344;2023-03-15T01:07:50;96130.41;;;3.37;84.02
25855;BME280;13680;49.936;11.344;2023-03-15T01:10:17;96134.34;;;3.60;83.31
25855;BME280;13680;49.936;11.344;2023-03-15T01:12:43;96135.41;;;3.59;83.23
25855;BME280;13680;49.936;11.344;2023-03-15T01:15:11;96138.59;;;3.61;83.11
25855;BME280;13680;49.936;11.344;2023-03-15T01:17:37;96132.75;;;3.54;83.33
25855;BME280;13680;49.936;11.344;2023-03-15T01:20:03;96136.44;;;3.63;83.07
25855;BME280;13680;49.936;11.344;2023-03-15T01:22:29;96139.13;;;3.58;83.34
25855;BME280;13680;49.936;11.344;2023-03-15T01:24:55;96139.91;;;3.58;83.43
25855;BME280;13680;49.936;11.344;2023-03-15T01:27:20;96148.97;;;3.63;82.99
25855;BME280;13680;49.936;11.344;2023-03-15T01:29:46;96147.06;;;3.68;82.91
25855;BME280;13680;49.936;11.344;2023-03-15T01:32:11;96147.88;;;3.74;82.71
25855;BME280;13680;49.936;11.344;2023-03-15T01:34:36;96143.16;;;3.35;84.21
25855;BME280;13680;49.936;11.344;2023-03-15T01:37:02;96140.19;;;3.52;83.43
25855;BME280;13680;49.936;11.344;2023-03-15T01:39:28;96145.78;;;3.55;83.12
25855;BME280;13680;49.936;11.344;2023-03-15T01:41:54;96143.66;;;3.57;82.64
25855;BME280;13680;49.936;11.344;2023-03-15T01:44:19;96154.00;;;3.59;82.46
25855;BME280;13680;49.936;11.344;2023-03-15T01:46:46;96162.53;;;3.61;82.22
25855;BME280;13680;49.936;11.344;2023-03-15T01:49:27;96165.97;;;3.67;81.97
25855;BME280;13680;49.936;11.344;2023-03-15T01:52:11;96168.34;;;3.63;82.15
25855;BME280;13680;49.936;11.344;2023-03-15T01:54:44;96167.00;;;3.66;81.57
25855;BME280;13680;49.936;11.344;2023-03-15T01:59:51;96170.47;;;3.56;81.73
25855;BME280;13680;49.936;11.344;2023-03-15T02:02:20;96173.97;;;3.46;81.55
25855;BME280;13680;49.936;11.344;2023-03-15T02:04:50;96178.19;;;3.63;81.30
25855;BME280;13680;49.936;11.344;2023-03-15T02:07:19;96172.09;;;3.52;80.87
25855;BME280;13680;49.936;11.344;2023-03-15T02:12:27;96183.28;;;3.49;80.99
25855;BME280;13680;49.936;11.344;2023-03-15T02:14:54;96184.59;;;3.56;80.20
25855;BME280;13680;49.936;11.344;2023-03-15T02:17:24;96183.53;;;3.52;80.38
25855;BME280;13680;49.936;11.344;2023-03-15T02:28:05;96184.88;;;3.55;80.24
25855;BME280;13680;49.936;11.344;2023-03-15T02:30:32;96193.34;;;3.52;80.48
25855;BME280;13680;49.936;11.344;2023-03-15T02:32:59;96199.72;;;3.51;80.30
25855;BME280;13680;49.936;11.344;2023-03-15T02:35:30;96210.13;;;3.47;80.77
25855;BME280;13680;49.936;11.344;2023-03-15T02:37:56;96212.78;;;3.57;80.78
25855;BME280;13680;49.936;11.344;2023-03-15T02:40:23;96214.88;;;3.55;80.83
25855;BME280;13680;49.936;11.344;2023-03-15T02:42:56;96210.13;;;3.57;80.88
25855;BME280;13680;49.936;11.344;2023-03-15T02:45:25;96223.66;;;3.56;80.81
25855;BME280;13680;49.936;11.344;2023-03-15T02:47:51;96222.06;;;3.55;81.25
25855;BME280;13680;49.936;11.344;2023-03-15T02:50:17;96228.44;;;3.54;80.88
25855;BME280;13680;49.936;11.344;2023-03-15T02:52:43;96231.38;;;3.47;81.21
25855;BME280;13680;49.936;11.344;2023-03-15T02:55:09;96236.16;;;3.45;81.32
25855;BME280;13680;49.936;11.344;2023-03-15T02:57:35;96242.03;;;3.42;81.55
25855;BME280;13680;49.936;11.344;2023-03-15T03:00:00;96243.34;;;3.39;81.49
25855;BME280;13680;49.936;11.344;2023-03-15T03:02:37;96249.19;;;3.41;81.91
25855;BME280;13680;49.936;11.344;2023-03-15T03:05:02;96261.69;;;3.36;82.20
25855;BME280;13680;49.936;11.344;2023-03-15T03:07:28;96262.72;;;3.30;82.09
25855;BME280;13680;49.936;11.344;2023-03-15T03:09:53;96267.22;;;3.34;82.28
25855;BME280;13680;49.936;11.344;2023-03-15T03:12:18;96276.28;;;3.33;82.35
25855;BME280;13680;49.936;11.344;2023-03-15T03:14:44;96282.94;;;3.36;81.94
25855;BME280;13680;49.936;11.344;2023-03-15T03:17:09;96286.66;;;3.35;81.76
25855;BME280;13680;49.936;11.344;2023-03-15T03:19:34;96291.44;;;3.38;81.50
25855;BME280;13680;49.936;11.344;2023-03-15T03:22:00;96293.28;;;3.27;81.81
25855;BME280;13680;49.936;11.344;2023-03-15T03:24:25;96293.00;;;3.23;81.73
25855;BME280;13680;49.936;11.344;2023-03-15T03:26:50;96299.66;;;3.21;81.86
25855;BME280;13680;49.936;11.344;2023-03-15T03:29:16;96310.28;;;3.16;81.82
25855;BME280;13680;49.936;11.344;2023-03-15T03:31:42;96321.16;;;3.09;81.51
25855;BME280;13680;49.936;11.344;2023-03-15T03:34:08;96326.97;;;3.11;81.65
25855;BME280;13680;49.936;11.344;2023-03-15T03:36:35;96331.47;;;3.00;81.83
25855;BME280;13680;49.936;11.344;2023-03-15T03:39:01;96341.03;;;2.96;81.72
25855;BME280;13680;49.936;11.344;2023-03-15T03:41:26;96337.28;;;2.97;81.63
25855;BME280;13680;49.936;11.344;2023-03-15T03:43:51;96343.16;;;2.94;81.36
25855;BME280;13680;49.936;11.344;2023-03-15T03:46:17;96349.00;;;2.96;80.88
25855;BME280;13680;49.936;11.344;2023-03-15T03:48:42;96358.50;;;2.82;81.40
25855;BME280;13680;49.936;11.344;2023-03-15T03:51:08;96360.59;;;2.74;80.91
25855;BME280;13680;49.936;11.344;2023-03-15T03:53:33;96360.03;;;2.72;81.20
25855;BME280;13680;49.936;11.344;2023-03-15T03:55:59;96362.69;;;2.67;80.89
25855;BME280;13680;49.936;11.344;2023-03-15T03:58:28;96375.94;;;2.67;80.35
25855;BME280;13680;49.936;11.344;2023-03-15T04:00:53;96378.03;;;2.60;80.52
25855;BME280;13680;49.936;11.344;2023-03-15T04:03:19;96375.88;;;2.52;80.41
25855;BME280;13680;49.936;11.344;2023-03-15T04:05:45;96386.16;;;2.43;80.87
25855;BME280;13680;49.936;11.344;2023-03-15T04:08:10;96380.56;;;2.39;80.83
25855;BME280;13680;49.936;11.344;2023-03-15T04:10:35;96385.56;;;2.36;80.54
25855;BME280;13680;49.936;11.344;2023-03-15T04:13:01;96385.81;;;2.29;80.94
25855;BME280;13680;49.936;11.344;2023-03-15T04:15:27;96389.88;;;2.04;81.26
25855;BME280;13680;49.936;11.344;2023-03-15T04:17:52;96385.38;;;2.05;81.14
25855;BME280;13680;49.936;11.344;2023-03-15T04:20:26;96386.16;;;2.05;81.60
25855;BME280;13680;49.936;11.344;2023-03-15T04:22:51;96393.03;;;2.01;81.30
25855;BME280;13680;49.936;11.344;2023-03-15T04:25:20;96395.41;;;2.03;81.33
25855;BME280;13680;49.936;11.344;2023-03-15T04:27:46;96397.31;;;2.07;81.25
25855;BME280;13680;49.936;11.344;2023-03-15T04:30:23;96395.81;;;1.84;81.40
25855;BME280;13680;49.936;11.344;2023-03-15T04:32:51;96414.41;;;1.89;81.68
25855;BME280;13680;49.936;11.344;2023-03-15T04:35:30;96404.81;;;1.83;82.26
25855;BME280;13680;49.936;11.344;2023-03-15T04:37:56;96401.69;;;1.91;82.40
25855;BME280;13680;49.936;11.344;2023-03-15T04:40:23;96414.09;;;1.86;82.65
25855;BME280;13680;49.936;11.344;2023-03-15T04:42:50;96424.50;;;1.92;83.33
25855;BME280;13680;49.936;11.344;2023-03-15T04:45:16;96428.72;;;1.88;83.34
25855;BME280;13680;49.936;11.344;2023-03-15T04:47:41;96424.00;;;1.95;82.87
25855;BME280;13680;49.936;11.344;2023-03-15T04:50:08;96423.97;;;1.90;83.31
25855;BME280;13680;49.936;11.344;2023-03-15T04:52:34;96433.81;;;1.95;83.01
25855;BME280;13680;49.936;11.344;2023-03-15T04:54:59;96440.66;;;1.91;83.53
25855;BME280;13680;49.936;11.344;2023-03-15T04:57:24;96445.41;;;1.89;82.85
25855;BME280;13680;49.936;11.344;2023-03-15T04:59:50;96445.38;;;1.84;83.81
25855;BME280;13680;49.936;11.344;2023-03-15T05:02:15;96452.88;;;1.92;82.80
25855;BME280;13680;49.936;11.344;2023-03-15T05:04:40;96452.31;;;1.90;82.72
25855;BME280;13680;49.936;11.344;2023-03-15T05:07:07;96455.53;;;1.92;82.39
25855;BME280;13680;49.936;11.344;2023-03-15T05:09:32;96461.88;;;1.91;82.24
25855;BME280;13680;49.936;11.344;2023-03-15T05:12:03;96465.31;;;1.91;81.98
25855;BME280;13680;49.936;11.344;2023-03-15T05:14:28;96461.63;;;1.92;82.08
25855;BME280;13680;49.936;11.344;2023-03-15T05:16:54;96472.44;;;1.86;82.34
25855;BME280;13680;49.936;11.344;2023-03-15T05:19:20;96474.00;;;1.82;82.12
25855;BME280;13680;49.936;11.344;2023-03-15T05:21:46;96473.38;;;1.74;81.37
25855;BME280;13680;49.936;11.344;2023-03-15T05:24:11;96477.63;;;1.75;81.99
25855;BME280;13680;49.936;11.344;2023-03-15T05:26:36;96477.53;;;1.65;81.13
25855;BME280;13680;49.936;11.344;2023-03-15T05:29:01;96480.63;;;1.57;81.15
25855;BME280;13680;49.936;11.344;2023-03-15T05:31:27;96483.03;;;1.58;81.35
25855;BME280;13680;49.936;11.344;2023-03-15T05:33:52;96484.88;;;1.58;81.62
25855;BME280;13680;49.936;11.344;2023-03-15T05:36:18;96488.81;;;1.55;81.40
25855;BME280;13680;49.936;11.344;2023-03-15T05:38:43;96493.38;;;1.60;81.17
25855;BME280;13680;49.936;11.344;2023-03-15T05:41:09;96494.44;;;1.59;81.46
25855;BME280;13680;49.936;11.344;2023-03-15T05:43:34;96495.22;;;1.59;80.40
25855;BME280;13680;49.936;11.344;2023-03-15T05:45:59;96490.09;;;1.53;81.49
25855;BME280;13680;49.936;11.344;2023-03-15T05:48:24;96501.03;;;1.56;81.39
25855;BME280;13680;49.936;11.344;2023-03-15T05:50:51;96506.53;;;1.50;81.51
25855;BME280;13680;49.936;11.344;2023-03-15T05:53:16;96516.66;;;1.58;81.42
25855;BME280;13680;49.936;11.344;2023-03-15T05:55:42;96515.25;;;1.50;82.14
25855;BME280;13680;49.936;11.344;2023-03-15T05:58:07;96527.00;;;1.59;82.35
25855;BME280;13680;49.936;11.344;2023-03-15T06:00:33;96532.16;;;1.66;82.24
25855;BME280;13680;49.936;11.344;2023-03-15T06:02:58;96531.50;;;1.81;81.85
25855;BME280;13680;49.936;11.344;2023-03-15T06:05:24;96544.94;;;1.96;81.30
25855;BME280;13680;49.936;11.344;2023-03-15T06:07:49;96541.69;;;1.89;81.47
25855;BME280;13680;49.936;11.344;2023-03-15T06:10:14;96546.13;;;1.39;85.42
25855;BME280;13680;49.936;11.344;2023-03-15T06:12:40;96543.91;;;1.75;84.80
25855;BME280;13680;49.936;11.344;2023-03-15T06:15:06;96545.44;;;1.93;84.17
25855;BME280;13680;49.936;11.344;2023-03-15T06:17:31;96557.31;;;2.40;82.96
25855;BME280;13680;49.936;11.344;2023-03-15T06:19:57;96552.97;;;2.61;81.92
25855;BME280;13680;49.936;11.344;2023-03-15T06:22:22;96555.13;;;3.02;80.89
25855;BME280;13680;49.936;11.344;2023-03-15T06:24:48;96551.13;;;3.42;80.86
25855;BME280;13680;49.936;11.344;2023-03-15T06:27:14;96554.63;;;3.58;79.64
25855;BME280;13680;49.936;11.344;2023-03-15T06:29:39;96554.44;;;3.65;79.46
25855;BME280;13680;49.936;11.344;2023-03-15T06:32:04;96562.75;;;3.84;79.13
25855;BME280;13680;49.936;11.344;2023-03-15T06:34:30;96565.72;;;4.03;78.55
25855;BME280;13680;49.936;11.344;2023-03-15T06:36:55;96568.19;;;3.57;77.28
25855;BME280;13680;49.936;11.344;2023-03-15T06:39:21;96565.13;;;3.86;76.38
25855;BME280;13680;49.936;11.344;2023-03-15T06:41:47;96577.81;;;3.68;75.85
25855;BME280;13680;49.936;11.344;2023-03-15T06:44:13;96581.41;;;3.41;76.47
25855;BME280;13680;49.936;11.344;2023-03-15T06:46:38;96579.81;;;3.40;77.54
25855;BME280;13680;49.936;11.344;2023-03-15T06:49:04;96574.03;;;3.54;76.75
25855;BME280;13680;49.936;11.344;2023-03-15T06:51:29;96576.94;;;3.47;77.43
25855;BME280;13680;49.936;11.344;2023-03-15T06:53:54;96585.81;;;3.68;77.12
25855;BME280;13680;49.936;11.344;2023-03-15T06:56:21;96580.13;;;3.49;76.73
25855;BME280;13680;49.936;11.344;2023-03-15T06:58:46;96585.19;;;3.56;76.42
25855;BME280;13680;49.936;11.344;2023-03-15T07:01:12;96591.66;;;3.70;76.39
25855;BME280;13680;49.936;11.344;2023-03-15T07:03:38;96588.06;;;3.97;76.38
25855;BME280;13680;49.936;11.344;2023-03-15T07:06:04;96587.06;;;4.24;75.12
25855;BME280;13680;49.936;11.344;2023-03-15T07:08:29;96589.22;;;4.37;73.83
25855;BME280;13680;49.936;11.344;2023-03-15T07:10:55;96595.09;;;4.45;74.08
25855;BME280;13680;49.936;11.344;2023-03-15T07:13:20;96600.19;;;4.72;72.65
25855;BME280;13680;49.936;11.344;2023-03-15T07:15:50;96589.28;;;4.94;71.92
25855;BME280;13680;49.936;11.344;2023-03-15T07:18:16;96575.66;;;5.16;71.93
25855;BME280;13680;49.936;11.344;2023-03-15T07:20:41;96589.47;;;5.54;71.73
25855;BME280;13680;49.936;11.344;2023-03-15T07:23:06;96589.72;;;5.63;70.09
25855;BME280;13680;49.936;11.344;2023-03-15T07:25:32;96587.06;;;5.53;68.45
25855;BME280;13680;49.936;11.344;2023-03-15T07:27:57;96584.47;;;5.32;69.57
25855;BME280;13680;49.936;11.344;2023-03-15T07:30:22;96590.56;;;5.33;69.44
25855;BME280;13680;49.936;11.344;2023-03-15T07:32:48;96604.72;;;4.87;69.77
25855;BME280;13680;49.936;11.344;2023-03-15T07:35:13;96599.41;;;4.97;69.90
25855;BME280;13680;49.936;11.344;2023-03-15T07:37:39;96596.44;;;5.35;69.29
25855;BME280;13680;49.936;11.344;2023-03-15T07:40:05;96600.97;;;5.34;69.52
25855;BME280;13680;49.936;11.344;2023-03-15T07:42:37;96599.41;;;5.07;68.59
25855;BME280;13680;49.936;11.344;2023-03-15T07:45:04;96596.97;;;5.27;68.73
25855;BME280;13680;49.936;11.344;2023-03-15T07:47:30;96607.94;;;4.99;75.70
25855;BME280;13680;49.936;11.344;2023-03-15T07:49:55;96600.19;;;5.29;74.86
25855;BME280;13680;49.936;11.344;2023-03-15T07:52:21;96598.75;;;5.67;72.03
25855;BME280;13680;49.936;11.344;2023-03-15T07:54:46;96600.63;;;5.72;72.19
25855;BME280;13680;49.936;11.344;2023-03-15T07:57:12;96594.97;;;5.84;68.94
25855;BME280;13680;49.936;11.344;2023-03-15T07:59:37;96593.09;;;5.95;68.05
25855;BME280;13680;49.936;11.344;2023-03-15T08:02:03;96603.06;;;5.58;68.29
25855;BME280;13680;49.936;11.344;2023-03-15T08:04:29;96599.56;;;5.73;67.95
25855;BME280;13680;49.936;11.344;2023-03-15T08:06:54;96602.25;;;5.68;68.13
25855;BME280;13680;49.936;11.344;2023-03-15T08:09:19;96604.59;;;5.80;67.97
25855;BME280;13680;49.936;11.344;2023-03-15T08:11:45;96608.94;;;5.45;68.25
25855;BME280;13680;49.936;11.344;2023-03-15T08:14:10;96602.78;;;5.65;69.08
25855;BME280;13680;49.936;11.344;2023-03-15T08:16:36;96599.72;;;6.08;69.83
25855;BME280;13680;49.936;11.344;2023-03-15T08:19:01;96608.72;;;6.27;67.47
25855;BME280;13680;49.936;11.344;2023-03-15T08:21:26;96604.97;;;6.28;66.69
25855;BME280;13680;49.936;11.344;2023-03-15T08:23:52;96594.66;;;6.11;65.90
25855;BME280;13680;49.936;11.344;2023-03-15T08:26:17;96609.28;;;6.19;66.06
25855;BME280;13680;49.936;11.344;2023-03-15T08:28:42;96608.88;;;5.81;65.88
25855;BME280;13680;49.936;11.344;2023-03-15T08:31:08;96615.63;;;5.52;66.57
25855;BME280;13680;49.936;11.344;2023-03-15T08:33:33;96612.72;;;5.44;66.59
25855;BME280;13680;49.936;11.344;2023-03-15T08:35:59;96606.47;;;5.74;66.48
25855;BME280;13680;49.936;11.344;2023-03-15T08:38:25;96607.84;;;5.66;68.67
25855;BME280;13680;49.936;11.344;2023-03-15T08:40:55;96614.31;;;5.19;68.43
25855;BME280;13680;49.936;11.344;2023-03-15T08:43:21;96630.03;;;5.15;69.56
25855;BME280;13680;49.936;11.344;2023-03-15T08:45:47;96622.56;;;5.28;69.67
25855;BME280;13680;49.936;11.344;2023-03-15T08:48:14;96630.81;;;5.52;69.41
25855;BME280;13680;49.936;11.344;2023-03-15T08:50:39;96630.75;;;5.78;69.02
25855;BME280;13680;49.936;11.344;2023-03-15T08:53:05;96638.22;;;5.86;67.80
25855;BME280;13680;49.936;11.344;2023-03-15T08:55:30;96632.91;;;5.70;67.60
25855;BME280;13680;49.936;11.344;2023-03-15T08:57:55;96633.34;;;6.14;66.69
25855;BME280;13680;49.936;11.344;2023-03-15T09:00:21;96637.50;;;6.41;66.28
25855;BME280;13680;49.936;11.344;2023-03-15T09:02:48;96631.00;;;6.57;66.00
25855;BME280;13680;49.936;11.344;2023-03-15T09:05:14;96631.16;;;6.71;65.33
25855;BME280;13680;49.936;11.344;2023-03-15T09:07:41;96640.13;;;6.46;66.32
25855;BME280;13680;49.936;11.344;2023-03-15T09:10:08;96632.53;;;6.63;65.33
25855;BME280;13680;49.936;11.344;2023-03-15T09:12:34;96646.06;;;6.32;65.25
25855;BME280;13680;49.936;11.344;2023-03-15T09:14:59;96651.31;;;5.77;66.12
25855;BME280;13680;49.936;11.344;2023-03-15T09:17:25;96647.31;;;5.69;66.92
25855;BME280;13680;49.936;11.344;2023-03-15T09:19:50;96655.91;;;5.40;69.25
25855;BME280;13680;49.936;11.344;2023-03-15T09:22:16;96665.78;;;5.09;69.73
25855;BME280;13680;49.936;11.344;2023-03-15T09:24:41;96666.06;;;5.28;69.46
25855;BME280;13680;49.936;11.344;2023-03-15T09:27:07;96655.88;;;5.46;70.01
25855;BME280;13680;49.936;11.344;2023-03-15T09:29:32;96663.34;;;5.59;70.01
25855;BME280;13680;49.936;11.344;2023-03-15T09:31:58;96671.91;;;4.99;70.40
25855;BME280;13680;49.936;11.344;2023-03-15T09:34:26;96670.56;;;4.91;70.75
25855;BME280;13680;49.936;11.344;2023-03-15T09:36:51;96667.91;;;5.12;70.72
25855;BME280;13680;49.936;11.344;2023-03-15T09:39:19;96673.78;;;5.24;70.95
25855;BME280;13680;49.936;11.344;2023-03-15T09:41:49;96672.44;;;5.27;71.41
25855;BME280;13680;49.936;11.344;2023-03-15T09:44:34;96670.84;;;5.05;71.70
25855;BME280;13680;49.936;11.344;2023-03-15T09:47:20;96674.00;;;4.82;71.79
25855;BME280;13680;49.936;11.344;2023-03-15T09:49:56;96674.03;;;5.07;71.71
25855;BME280;13680;49.936;11.344;2023-03-15T09:52:48;96681.72;;;4.99;73.07
25855;BME280;13680;49.936;11.344;2023-03-15T09:55:20;96685.78;;;5.06;72.91
25855;BME280;13680;49.936;11.344;2023-03-15T09:58:10;96674.28;;;5.16;71.99
25855;BME280;13680;49.936;11.344;2023-03-15T10:00:41;96679.63;;;5.06;71.99
25855;BME280;13680;49.936;11.344;2023-03-15T10:03:15;96685.72;;;5.01;72.46
25855;BME280;13680;49.936;11.344;2023-03-15T10:05:46;96688.91;;;4.78;73.21
25855;BME280;13680;49.936;11.344;2023-03-15T10:08:17;96685.69;;;4.75;73.55
25855;BME280;13680;49.936;11.344;2023-03-15T10:10:50;96685.22;;;4.89;73.74
25855;BME280;13680;49.936;11.344;2023-03-15T10:18:48;96685.22;;;4.89;73.78
25855;BME280;13680;49.936;11.344;2023-03-15T10:21:39;96690.13;;;4.34;75.08
25855;BME280;13680;49.936;11.344;2023-03-15T10:30:22;96688.41;;;3.59;80.35
25855;BME280;13680;49.936;11.344;2023-03-15T10:33:13;96694.19;;;3.93;79.29
25855;BME280;13680;49.936;11.344;2023-03-15T10:35:37;96689.63;;;3.46;79.59
25855;BME280;13680;49.936;11.344;2023-03-15T10:38:02;96698.72;;;3.55;80.01
25855;BME280;13680;49.936;11.344;2023-03-15T10:40:41;96696.94;;;3.61;79.82
25855;BME280;13680;49.936;11.344;2023-03-15T10:43:20;96703.41;;;3.75;80.02
25855;BME280;13680;49.936;11.344;2023-03-15T10:46:02;96702.63;;;3.42;79.69
25855;BME280;13680;49.936;11.344;2023-03-15T10:48:31;96703.34;;;3.65;80.36
25855;BME280;13680;49.936;11.344;2023-03-15T10:51:01;96691.53;;;3.56;80.41
25855;BME280;13680;49.936;11.344;2023-03-15T10:53:28;96710.53;;;3.70;80.16
25855;BME280;13680;49.936;11.344;2023-03-15T10:56:03;96702.72;;;3.20;82.61
25855;BME280;13680;49.936;11.344;2023-03-15T10:58:39;96696.50;;;2.77;84.10
25855;BME280;13680;49.936;11.344;2023-03-15T11:01:07;96700.91;;;3.26;83.67
25855;BME280;13680;49.936;11.344;2023-03-15T11:03:36;96694.19;;;3.18;82.94
25855;BME280;13680;49.936;11.344;2023-03-15T11:06:02;96696.34;;;3.54;81.89
25855;BME280;13680;49.936;11.344;2023-03-15T11:08:41;96702.63;;;3.10;83.73
25855;BME280;13680;49.936;11.344;2023-03-15T11:11:08;96697.38;;;3.53;82.41
25855;BME280;13680;49.936;11.344;2023-03-15T11:13:35;96711.06;;;3.34;82.46
25855;BME280;13680;49.936;11.344;2023-03-15T11:18:42;96708.59;;;3.55;82.68
25855;BME280;13680;49.936;11.344;2023-03-15T11:21:12;96713.81;;;3.44;83.84
25855;BME280;13680;49.936;11.344;2023-03-15T11:23:41;96709.63;;;3.54;81.65
25855;BME280;13680;49.936;11.344;2023-03-15T11:26:20;96708.78;;;3.86;80.73
25855;BME280;13680;49.936;11.344;2023-03-15T11:28:55;96703.47;;;3.91;81.20
25855;BME280;13680;49.936;11.344;2023-03-15T11:31:25;96705.63;;;3.99;79.49
25855;BME280;13680;49.936;11.344;2023-03-15T11:34:08;96702.63;;;4.33;78.83
25855;BME280;13680;49.936;11.344;2023-03-15T11:36:39;96706.88;;;3.81;79.98
25855;BME280;13680;49.936;11.344;2023-03-15T11:39:11;96700.94;;;4.12;79.67
25855;BME280;13680;49.936;11.344;2023-03-15T11:41:51;96698.53;;;3.67;82.36
25855;BME280;13680;49.936;11.344;2023-03-15T11:44:47;96710.28;;;3.71;82.07
25855;BME280;13680;49.936;11.344;2023-03-15T11:49:50;96711.78;;;4.00;81.25
25855;BME280;13680;49.936;11.344;2023-03-15T11:52:19;96704.59;;;4.00;80.70
25855;BME280;13680;49.936;11.344;2023-03-15T11:54:45;96715.91;;;4.28;79.72
25855;BME280;13680;49.936;11.344;2023-03-15T11:58:25;96706.13;;;3.91;79.77
25855;BME280;13680;49.936;11.344;2023-03-15T12:03:22;96703.41;;;3.75;81.79
25855;BME280;13680;49.936;11.344;2023-03-15T12:05:50;96704.13;;;4.08;80.28
25855;BME280;13680;49.936;11.344;2023-03-15T12:08:40;96704.22;;;4.34;79.05
25855;BME280;13680;49.936;11.344;2023-03-15T12:11:35;96704.59;;;4.00;79.56
25855;BME280;13680;49.936;11.344;2023-03-15T12:16:34;96703.50;;;3.96;80.35
25855;BME280;13680;49.936;11.344;2023-03-15T12:19:09;96705.50;;;4.21;79.41
25855;BME280;13680;49.936;11.344;2023-03-15T12:21:42;96712.22;;;4.34;78.53
25855;BME280;13680;49.936;11.344;2023-03-15T12:24:21;96698.31;;;4.27;78.73
25855;BME280;13680;49.936;11.344;2023-03-15T12:26:48;96715.53;;;4.09;79.40
25855;BME280;13680;49.936;11.344;2023-03-15T12:29:25;96716.69;;;4.29;79.53
25855;BME280;13680;49.936;11.344;2023-03-15T12:37:38;96708.34;;;4.04;80.09
25855;BME280;13680;49.936;11.344;2023-03-15T12:53:13;96713.22;;;4.23;79.13
25855;BME280;13680;49.936;11.344;2023-03-15T12:55:39;96713.88;;;4.56;79.14
25855;BME280;13680;49.936;11.344;2023-03-15T12:58:09;96716.03;;;4.69;77.69
25855;BME280;13680;49.936;11.344;2023-03-15T13:00:37;96720.56;;;4.58;78.47
25855;BME280;13680;49.936;11.344;2023-03-15T13:03:07;96719.69;;;4.48;78.24
25855;BME280;13680;49.936;11.344;2023-03-15T13:05:54;96717.38;;;4.67;78.47
25855;BME280;13680;49.936;11.344;2023-03-15T13:08:25;96723.00;;;4.81;77.69
25855;BME280;13680;49.936;11.344;2023-03-15T13:14:35;96732.16;;;4.26;79.05
25855;BME280;13680;49.936;11.344;2023-03-15T13:19:37;96719.16;;;4.40;78.99
25855;BME280;13680;49.936;11.344;2023-03-15T13:22:16;96718.94;;;4.52;78.12
25855;BME280;13680;49.936;11.344;2023-03-15T13:24:55;96722.88;;;4.39;79.09
25855;BME280;13680;49.936;11.344;2023-03-15T13:30:46;96723.94;;;4.43;78.25
25855;BME280;13680;49.936;11.344;2023-03-15T13:33:19;96728.00;;;4.62;77.13
25855;BME280;13680;49.936;11.344;2023-03-15T13:36:13;96728.84;;;4.67;76.75
25855;BME280;13680;49.936;11.344;2023-03-15T13:38:55;96727.47;;;4.54;76.98
25855;BME280;13680;49.936;11.344;2023-03-15T13:41:29;96723.53;;;4.67;77.00
25855;BME280;13680;49.936;11.344;2023-03-15T13:43:57;96731.97;;;4.54;77.47
25855;BME280;13680;49.936;11.344;2023-03-15T13:46:25;96727.66;;;4.37;79.08
25855;BME280;13680;49.936;11.344;2023-03-15T13:48:52;96730.91;;;4.50;78.59
25855;BME280;13680;49.936;11.344;2023-03-15T13:51:31;96719.78;;;4.68;77.95
25855;BME280;13680;49.936;11.344;2023-03-15T13:54:03;96727.25;;;4.66;77.38
25855;BME280;13680;49.936;11.344;2023-03-15T13:56:33;96732.56;;;4.61;77.68
25855;BME280;13680;49.936;11.344;2023-03-15T13:59:00;96730.13;;;4.54;77.64
25855;BME280;13680;49.936;11.344;2023-03-15T14:01:27;96733.59;;;4.60;77.45
25855;BME280;13680;49.936;11.344;2023-03-15T14:03:59;96727.25;;;4.66;77.39
25855;BME280;13680;49.936;11.344;2023-03-15T14:06:27;96728.56;;;4.64;77.40
25855;BME280;13680;49.936;11.344;2023-03-15T14:08:59;96727.81;;;4.84;76.65
25855;BME280;13680;49.936;11.344;2023-03-15T14:13:55;96728.78;;;4.52;77.74